<?xml version="1.0" encoding="UTF-8" standalone="no" ?>
<gpx xmlns="http://www.topografix.com/GPX/1/1" xmlns:xsi="http://www.w3.org/2001/XMLSchema-instance" xsi:schemaLocation="http://www.topografix.com/GPX/1/1 http://www.topografix.com/GPX/1/1/gpx.xsd" version="1.1" creator="VisuGPX - https://www.visugpx.com">
  <metadata>
    <name>Antony-Verrières Joëlettes</name>
    <desc><![CDATA[Antony-Verrières Joëlettes - 5km-20m]]></desc>
  </metadata>
  <trk>
    <name><![CDATA[2016-05-28 16:15:28]]></name>
    <trkseg>
      <trkpt lat="48.74283" lon="2.27898">
        <ele>51.78</ele>
        <time>2016-05-28T12:25:04Z</time>
      </trkpt>
      <trkpt lat="48.74283" lon="2.27897">
        <ele>51.78</ele>
        <time>2016-05-28T12:25:05Z</time>
      </trkpt>
      <trkpt lat="48.74284" lon="2.27893">
        <ele>51.62</ele>
        <time>2016-05-28T12:25:26Z</time>
      </trkpt>
      <trkpt lat="48.74284" lon="2.27891">
        <ele>51.58</ele>
        <time>2016-05-28T12:25:34Z</time>
      </trkpt>
      <trkpt lat="48.74296" lon="2.27901">
        <ele>51.56</ele>
        <time>2016-05-28T12:27:04Z</time>
      </trkpt>
      <trkpt lat="48.74297" lon="2.27902">
        <ele>51.59</ele>
        <time>2016-05-28T12:27:05Z</time>
      </trkpt>
      <trkpt lat="48.74307" lon="2.27922">
        <ele>51.63</ele>
        <time>2016-05-28T12:27:22Z</time>
      </trkpt>
      <trkpt lat="48.74307" lon="2.27925">
        <ele>51.46</ele>
        <time>2016-05-28T12:27:50Z</time>
      </trkpt>
      <trkpt lat="48.74307" lon="2.27925">
        <ele>51.46</ele>
        <time>2016-05-28T12:27:51Z</time>
      </trkpt>
      <trkpt lat="48.74364" lon="2.28016">
        <ele>50.18</ele>
        <time>2016-05-28T12:29:55Z</time>
      </trkpt>
      <trkpt lat="48.74374" lon="2.28037">
        <ele>50.06</ele>
        <time>2016-05-28T12:30:11Z</time>
      </trkpt>
      <trkpt lat="48.74388" lon="2.28058">
        <ele>49.84</ele>
        <time>2016-05-28T12:30:29Z</time>
      </trkpt>
      <trkpt lat="48.74389" lon="2.2806">
        <ele>49.83</ele>
        <time>2016-05-28T12:30:30Z</time>
      </trkpt>
      <trkpt lat="48.74405" lon="2.28084">
        <ele>49.59</ele>
        <time>2016-05-28T12:30:50Z</time>
      </trkpt>
      <trkpt lat="48.74419" lon="2.28111">
        <ele>49.6</ele>
        <time>2016-05-28T12:31:06Z</time>
      </trkpt>
      <trkpt lat="48.74434" lon="2.28142">
        <ele>49.35</ele>
        <time>2016-05-28T12:31:23Z</time>
      </trkpt>
      <trkpt lat="48.74448" lon="2.28169">
        <ele>49.09</ele>
        <time>2016-05-28T12:31:41Z</time>
      </trkpt>
      <trkpt lat="48.74449" lon="2.28171">
        <ele>49.07</ele>
        <time>2016-05-28T12:31:42Z</time>
      </trkpt>
      <trkpt lat="48.74459" lon="2.28185">
        <ele>49.17</ele>
        <time>2016-05-28T12:31:52Z</time>
      </trkpt>
      <trkpt lat="48.74468" lon="2.28186">
        <ele>49.03</ele>
        <time>2016-05-28T12:32:00Z</time>
      </trkpt>
      <trkpt lat="48.74472" lon="2.28189">
        <ele>49.06</ele>
        <time>2016-05-28T12:32:03Z</time>
      </trkpt>
      <trkpt lat="48.74481" lon="2.28214">
        <ele>49.57</ele>
        <time>2016-05-28T12:32:18Z</time>
      </trkpt>
      <trkpt lat="48.74491" lon="2.2824">
        <ele>48.93</ele>
        <time>2016-05-28T12:32:34Z</time>
      </trkpt>
      <trkpt lat="48.74509" lon="2.28272">
        <ele>48.9</ele>
        <time>2016-05-28T12:32:54Z</time>
      </trkpt>
      <trkpt lat="48.74517" lon="2.28284">
        <ele>49.02</ele>
        <time>2016-05-28T12:33:07Z</time>
      </trkpt>
      <trkpt lat="48.7452" lon="2.28285">
        <ele>49.17</ele>
        <time>2016-05-28T12:33:14Z</time>
      </trkpt>
      <trkpt lat="48.74535" lon="2.28306">
        <ele>49.57</ele>
        <time>2016-05-28T12:33:29Z</time>
      </trkpt>
      <trkpt lat="48.74542" lon="2.28316">
        <ele>49.75</ele>
        <time>2016-05-28T12:33:45Z</time>
      </trkpt>
      <trkpt lat="48.74542" lon="2.28319">
        <ele>49.67</ele>
        <time>2016-05-28T12:33:48Z</time>
      </trkpt>
      <trkpt lat="48.74543" lon="2.28326">
        <ele>49.56</ele>
        <time>2016-05-28T12:33:52Z</time>
      </trkpt>
      <trkpt lat="48.7455" lon="2.28344">
        <ele>49.43</ele>
        <time>2016-05-28T12:34:04Z</time>
      </trkpt>
      <trkpt lat="48.74555" lon="2.2835">
        <ele>49.48</ele>
        <time>2016-05-28T12:34:10Z</time>
      </trkpt>
      <trkpt lat="48.74575" lon="2.28369">
        <ele>50.06</ele>
        <time>2016-05-28T12:34:30Z</time>
      </trkpt>
      <trkpt lat="48.74583" lon="2.28374">
        <ele>50.66</ele>
        <time>2016-05-28T12:34:41Z</time>
      </trkpt>
      <trkpt lat="48.74589" lon="2.28381">
        <ele>50.86</ele>
        <time>2016-05-28T12:34:47Z</time>
      </trkpt>
      <trkpt lat="48.746" lon="2.28409">
        <ele>50.98</ele>
        <time>2016-05-28T12:35:03Z</time>
      </trkpt>
      <trkpt lat="48.746" lon="2.2841">
        <ele>50.93</ele>
        <time>2016-05-28T12:35:04Z</time>
      </trkpt>
      <trkpt lat="48.74612" lon="2.28422">
        <ele>51.03</ele>
        <time>2016-05-28T12:35:17Z</time>
      </trkpt>
      <trkpt lat="48.74629" lon="2.28438">
        <ele>51.71</ele>
        <time>2016-05-28T12:35:33Z</time>
      </trkpt>
      <trkpt lat="48.74633" lon="2.2844">
        <ele>51.84</ele>
        <time>2016-05-28T12:35:37Z</time>
      </trkpt>
      <trkpt lat="48.74654" lon="2.28461">
        <ele>51.94</ele>
        <time>2016-05-28T12:35:55Z</time>
      </trkpt>
      <trkpt lat="48.7467" lon="2.28475">
        <ele>51.85</ele>
        <time>2016-05-28T12:36:11Z</time>
      </trkpt>
      <trkpt lat="48.74675" lon="2.2848">
        <ele>51.76</ele>
        <time>2016-05-28T12:36:15Z</time>
      </trkpt>
      <trkpt lat="48.74689" lon="2.2849">
        <ele>51.83</ele>
        <time>2016-05-28T12:36:29Z</time>
      </trkpt>
      <trkpt lat="48.74695" lon="2.28495">
        <ele>51.98</ele>
        <time>2016-05-28T12:36:34Z</time>
      </trkpt>
      <trkpt lat="48.74711" lon="2.28506">
        <ele>51.89</ele>
        <time>2016-05-28T12:36:48Z</time>
      </trkpt>
      <trkpt lat="48.74714" lon="2.28511">
        <ele>51.91</ele>
        <time>2016-05-28T12:36:51Z</time>
      </trkpt>
      <trkpt lat="48.7472" lon="2.28518">
        <ele>51.74</ele>
        <time>2016-05-28T12:36:59Z</time>
      </trkpt>
      <trkpt lat="48.74725" lon="2.28514">
        <ele>51.36</ele>
        <time>2016-05-28T12:37:31Z</time>
      </trkpt>
      <trkpt lat="48.74726" lon="2.28516">
        <ele>51.24</ele>
        <time>2016-05-28T12:37:55Z</time>
      </trkpt>
      <trkpt lat="48.74721" lon="2.28525">
        <ele>51.47</ele>
        <time>2016-05-28T12:38:34Z</time>
      </trkpt>
      <trkpt lat="48.74724" lon="2.28521">
        <ele>51.37</ele>
        <time>2016-05-28T12:38:55Z</time>
      </trkpt>
      <trkpt lat="48.74714" lon="2.28525">
        <ele>51.02</ele>
        <time>2016-05-28T12:39:09Z</time>
      </trkpt>
      <trkpt lat="48.74711" lon="2.28528">
        <ele>50.61</ele>
        <time>2016-05-28T12:39:14Z</time>
      </trkpt>
      <trkpt lat="48.74711" lon="2.28544">
        <ele>49.17</ele>
        <time>2016-05-28T12:39:28Z</time>
      </trkpt>
      <trkpt lat="48.74719" lon="2.28575">
        <ele>49.45</ele>
        <time>2016-05-28T12:39:51Z</time>
      </trkpt>
      <trkpt lat="48.74712" lon="2.28592">
        <ele>49.13</ele>
        <time>2016-05-28T12:40:12Z</time>
      </trkpt>
      <trkpt lat="48.74696" lon="2.28614">
        <ele>48.73</ele>
        <time>2016-05-28T12:40:34Z</time>
      </trkpt>
      <trkpt lat="48.74677" lon="2.28635">
        <ele>47.53</ele>
        <time>2016-05-28T12:40:58Z</time>
      </trkpt>
      <trkpt lat="48.74654" lon="2.28658">
        <ele>46.43</ele>
        <time>2016-05-28T12:41:19Z</time>
      </trkpt>
      <trkpt lat="48.74648" lon="2.28665">
        <ele>46.24</ele>
        <time>2016-05-28T12:41:24Z</time>
      </trkpt>
      <trkpt lat="48.74637" lon="2.28679">
        <ele>45.3</ele>
        <time>2016-05-28T12:41:52Z</time>
      </trkpt>
      <trkpt lat="48.74638" lon="2.2869">
        <ele>44.81</ele>
        <time>2016-05-28T12:42:10Z</time>
      </trkpt>
      <trkpt lat="48.74647" lon="2.28712">
        <ele>46.6</ele>
        <time>2016-05-28T12:42:31Z</time>
      </trkpt>
      <trkpt lat="48.74656" lon="2.28727">
        <ele>47</ele>
        <time>2016-05-28T12:42:53Z</time>
      </trkpt>
      <trkpt lat="48.74656" lon="2.28723">
        <ele>47.08</ele>
        <time>2016-05-28T12:43:14Z</time>
      </trkpt>
      <trkpt lat="48.74655" lon="2.28726">
        <ele>46.93</ele>
        <time>2016-05-28T12:43:36Z</time>
      </trkpt>
      <trkpt lat="48.74604" lon="2.28774">
        <ele>43.21</ele>
        <time>2016-05-28T12:51:56Z</time>
      </trkpt>
      <trkpt lat="48.74594" lon="2.28779">
        <ele>43.21</ele>
        <time>2016-05-28T12:52:08Z</time>
      </trkpt>
      <trkpt lat="48.74592" lon="2.28784">
        <ele>43.02</ele>
        <time>2016-05-28T12:52:17Z</time>
      </trkpt>
      <trkpt lat="48.74601" lon="2.28809">
        <ele>42.74</ele>
        <time>2016-05-28T12:52:33Z</time>
      </trkpt>
      <trkpt lat="48.74603" lon="2.28824">
        <ele>42.61</ele>
        <time>2016-05-28T12:52:41Z</time>
      </trkpt>
      <trkpt lat="48.74605" lon="2.28833">
        <ele>42.63</ele>
        <time>2016-05-28T12:52:51Z</time>
      </trkpt>
      <trkpt lat="48.74608" lon="2.28836">
        <ele>42.65</ele>
        <time>2016-05-28T12:52:54Z</time>
      </trkpt>
      <trkpt lat="48.74606" lon="2.28848">
        <ele>42.38</ele>
        <time>2016-05-28T12:53:16Z</time>
      </trkpt>
      <trkpt lat="48.74616" lon="2.28881">
        <ele>42.09</ele>
        <time>2016-05-28T12:53:36Z</time>
      </trkpt>
      <trkpt lat="48.7463" lon="2.28904">
        <ele>42.31</ele>
        <time>2016-05-28T12:53:58Z</time>
      </trkpt>
      <trkpt lat="48.74634" lon="2.28914">
        <ele>42.32</ele>
        <time>2016-05-28T12:54:17Z</time>
      </trkpt>
      <trkpt lat="48.74646" lon="2.28904">
        <ele>42.41</ele>
        <time>2016-05-28T12:54:38Z</time>
      </trkpt>
      <trkpt lat="48.74657" lon="2.28908">
        <ele>42.79</ele>
        <time>2016-05-28T12:54:58Z</time>
      </trkpt>
      <trkpt lat="48.74672" lon="2.28922">
        <ele>43.1</ele>
        <time>2016-05-28T12:55:15Z</time>
      </trkpt>
      <trkpt lat="48.74669" lon="2.28918">
        <ele>42.74</ele>
        <time>2016-05-28T12:55:40Z</time>
      </trkpt>
      <trkpt lat="48.74673" lon="2.28926">
        <ele>42.13</ele>
        <time>2016-05-28T12:56:03Z</time>
      </trkpt>
      <trkpt lat="48.74677" lon="2.28921">
        <ele>41.82</ele>
        <time>2016-05-28T12:56:29Z</time>
      </trkpt>
      <trkpt lat="48.74676" lon="2.2892">
        <ele>41.69</ele>
        <time>2016-05-28T12:56:49Z</time>
      </trkpt>
      <trkpt lat="48.74672" lon="2.29029">
        <ele>38.83</ele>
        <time>2016-05-28T12:59:40Z</time>
      </trkpt>
      <trkpt lat="48.74682" lon="2.29033">
        <ele>38.82</ele>
        <time>2016-05-28T13:00:01Z</time>
      </trkpt>
      <trkpt lat="48.74686" lon="2.29044">
        <ele>38.45</ele>
        <time>2016-05-28T13:00:22Z</time>
      </trkpt>
      <trkpt lat="48.74689" lon="2.29064">
        <ele>38.44</ele>
        <time>2016-05-28T13:00:41Z</time>
      </trkpt>
      <trkpt lat="48.747" lon="2.29087">
        <ele>38.08</ele>
        <time>2016-05-28T13:01:00Z</time>
      </trkpt>
      <trkpt lat="48.74714" lon="2.29122">
        <ele>38.03</ele>
        <time>2016-05-28T13:01:22Z</time>
      </trkpt>
      <trkpt lat="48.7472" lon="2.29142">
        <ele>37.93</ele>
        <time>2016-05-28T13:01:40Z</time>
      </trkpt>
      <trkpt lat="48.74728" lon="2.29158">
        <ele>37.35</ele>
        <time>2016-05-28T13:02:07Z</time>
      </trkpt>
      <trkpt lat="48.74744" lon="2.29182">
        <ele>36.87</ele>
        <time>2016-05-28T13:02:27Z</time>
      </trkpt>
      <trkpt lat="48.74754" lon="2.29199">
        <ele>36.45</ele>
        <time>2016-05-28T13:02:47Z</time>
      </trkpt>
      <trkpt lat="48.7476" lon="2.29219">
        <ele>36.38</ele>
        <time>2016-05-28T13:03:08Z</time>
      </trkpt>
      <trkpt lat="48.74894" lon="2.29438">
        <ele>32.01</ele>
        <time>2016-05-28T13:10:00Z</time>
      </trkpt>
      <trkpt lat="48.74901" lon="2.29433">
        <ele>32.21</ele>
        <time>2016-05-28T13:10:05Z</time>
      </trkpt>
      <trkpt lat="48.74912" lon="2.29421">
        <ele>32.87</ele>
        <time>2016-05-28T13:10:17Z</time>
      </trkpt>
      <trkpt lat="48.74913" lon="2.29415">
        <ele>33.27</ele>
        <time>2016-05-28T13:10:49Z</time>
      </trkpt>
      <trkpt lat="48.74913" lon="2.29414">
        <ele>33.32</ele>
        <time>2016-05-28T13:10:52Z</time>
      </trkpt>
      <trkpt lat="48.74842" lon="2.29418">
        <ele>32.29</ele>
        <time>2016-05-28T13:13:16Z</time>
      </trkpt>
      <trkpt lat="48.74836" lon="2.29405">
        <ele>32.54</ele>
        <time>2016-05-28T13:13:24Z</time>
      </trkpt>
      <trkpt lat="48.74828" lon="2.29393">
        <ele>32.56</ele>
        <time>2016-05-28T13:13:34Z</time>
      </trkpt>
      <trkpt lat="48.74809" lon="2.29381">
        <ele>33.03</ele>
        <time>2016-05-28T13:13:53Z</time>
      </trkpt>
      <trkpt lat="48.74792" lon="2.29376">
        <ele>33.15</ele>
        <time>2016-05-28T13:14:08Z</time>
      </trkpt>
      <trkpt lat="48.74776" lon="2.29374">
        <ele>32.68</ele>
        <time>2016-05-28T13:14:25Z</time>
      </trkpt>
      <trkpt lat="48.74757" lon="2.29366">
        <ele>32.42</ele>
        <time>2016-05-28T13:14:42Z</time>
      </trkpt>
      <trkpt lat="48.74744" lon="2.29351">
        <ele>32.08</ele>
        <time>2016-05-28T13:15:01Z</time>
      </trkpt>
      <trkpt lat="48.7474" lon="2.29344">
        <ele>31.99</ele>
        <time>2016-05-28T13:15:05Z</time>
      </trkpt>
      <trkpt lat="48.7473" lon="2.2934">
        <ele>31.67</ele>
        <time>2016-05-28T13:15:18Z</time>
      </trkpt>
      <trkpt lat="48.74718" lon="2.29334">
        <ele>31.64</ele>
        <time>2016-05-28T13:15:37Z</time>
      </trkpt>
      <trkpt lat="48.74709" lon="2.29326">
        <ele>31.48</ele>
        <time>2016-05-28T13:15:47Z</time>
      </trkpt>
      <trkpt lat="48.74693" lon="2.293">
        <ele>31.29</ele>
        <time>2016-05-28T13:16:06Z</time>
      </trkpt>
      <trkpt lat="48.7468" lon="2.29284">
        <ele>31.23</ele>
        <time>2016-05-28T13:16:22Z</time>
      </trkpt>
      <trkpt lat="48.74679" lon="2.29284">
        <ele>31.23</ele>
        <time>2016-05-28T13:16:23Z</time>
      </trkpt>
      <trkpt lat="48.74666" lon="2.29273">
        <ele>31.45</ele>
        <time>2016-05-28T13:16:37Z</time>
      </trkpt>
      <trkpt lat="48.74656" lon="2.29257">
        <ele>31.44</ele>
        <time>2016-05-28T13:16:51Z</time>
      </trkpt>
      <trkpt lat="48.74654" lon="2.29253">
        <ele>31.38</ele>
        <time>2016-05-28T13:16:54Z</time>
      </trkpt>
      <trkpt lat="48.74644" lon="2.29235">
        <ele>31.5</ele>
        <time>2016-05-28T13:17:10Z</time>
      </trkpt>
      <trkpt lat="48.74637" lon="2.29232">
        <ele>31.53</ele>
        <time>2016-05-28T13:17:24Z</time>
      </trkpt>
      <trkpt lat="48.74638" lon="2.29229">
        <ele>31.39</ele>
        <time>2016-05-28T13:17:49Z</time>
      </trkpt>
      <trkpt lat="48.74599" lon="2.29134">
        <ele>32.46</ele>
        <time>2016-05-28T13:19:54Z</time>
      </trkpt>
      <trkpt lat="48.74599" lon="2.29126">
        <ele>32.45</ele>
        <time>2016-05-28T13:19:58Z</time>
      </trkpt>
      <trkpt lat="48.74597" lon="2.29112">
        <ele>32.33</ele>
        <time>2016-05-28T13:20:05Z</time>
      </trkpt>
      <trkpt lat="48.74592" lon="2.29085">
        <ele>32.18</ele>
        <time>2016-05-28T13:20:21Z</time>
      </trkpt>
      <trkpt lat="48.74589" lon="2.29061">
        <ele>32.04</ele>
        <time>2016-05-28T13:20:35Z</time>
      </trkpt>
      <trkpt lat="48.74581" lon="2.29033">
        <ele>32.12</ele>
        <time>2016-05-28T13:20:56Z</time>
      </trkpt>
      <trkpt lat="48.74573" lon="2.29008">
        <ele>32.03</ele>
        <time>2016-05-28T13:21:16Z</time>
      </trkpt>
      <trkpt lat="48.74568" lon="2.29">
        <ele>32.03</ele>
        <time>2016-05-28T13:21:24Z</time>
      </trkpt>
      <trkpt lat="48.74562" lon="2.28991">
        <ele>31.92</ele>
        <time>2016-05-28T13:21:33Z</time>
      </trkpt>
      <trkpt lat="48.74554" lon="2.28971">
        <ele>31.56</ele>
        <time>2016-05-28T13:21:49Z</time>
      </trkpt>
      <trkpt lat="48.74543" lon="2.28949">
        <ele>31.61</ele>
        <time>2016-05-28T13:22:07Z</time>
      </trkpt>
      <trkpt lat="48.74532" lon="2.28931">
        <ele>31.68</ele>
        <time>2016-05-28T13:22:21Z</time>
      </trkpt>
      <trkpt lat="48.74528" lon="2.2892">
        <ele>31.83</ele>
        <time>2016-05-28T13:22:27Z</time>
      </trkpt>
      <trkpt lat="48.74529" lon="2.28911">
        <ele>31.95</ele>
        <time>2016-05-28T13:22:46Z</time>
      </trkpt>
      <trkpt lat="48.74528" lon="2.28907">
        <ele>31.8</ele>
        <time>2016-05-28T13:23:06Z</time>
      </trkpt>
      <trkpt lat="48.74504" lon="2.28863">
        <ele>32.41</ele>
        <time>2016-05-28T13:24:56Z</time>
      </trkpt>
      <trkpt lat="48.74492" lon="2.28847">
        <ele>32.48</ele>
        <time>2016-05-28T13:25:13Z</time>
      </trkpt>
      <trkpt lat="48.7448" lon="2.28834">
        <ele>33.17</ele>
        <time>2016-05-28T13:25:28Z</time>
      </trkpt>
      <trkpt lat="48.74468" lon="2.28811">
        <ele>34.59</ele>
        <time>2016-05-28T13:25:47Z</time>
      </trkpt>
      <trkpt lat="48.7446" lon="2.28788">
        <ele>34.78</ele>
        <time>2016-05-28T13:26:06Z</time>
      </trkpt>
      <trkpt lat="48.74452" lon="2.28773">
        <ele>34.88</ele>
        <time>2016-05-28T13:26:23Z</time>
      </trkpt>
      <trkpt lat="48.74445" lon="2.28748">
        <ele>34.9</ele>
        <time>2016-05-28T13:26:42Z</time>
      </trkpt>
      <trkpt lat="48.74443" lon="2.28742">
        <ele>34.81</ele>
        <time>2016-05-28T13:26:46Z</time>
      </trkpt>
      <trkpt lat="48.74429" lon="2.28702">
        <ele>34.52</ele>
        <time>2016-05-28T13:27:09Z</time>
      </trkpt>
      <trkpt lat="48.74424" lon="2.28692">
        <ele>34.63</ele>
        <time>2016-05-28T13:27:18Z</time>
      </trkpt>
      <trkpt lat="48.74415" lon="2.28667">
        <ele>34.39</ele>
        <time>2016-05-28T13:27:34Z</time>
      </trkpt>
      <trkpt lat="48.74405" lon="2.28657">
        <ele>34.33</ele>
        <time>2016-05-28T13:27:44Z</time>
      </trkpt>
      <trkpt lat="48.744" lon="2.28639">
        <ele>34.57</ele>
        <time>2016-05-28T13:28:02Z</time>
      </trkpt>
      <trkpt lat="48.7439" lon="2.28619">
        <ele>34.69</ele>
        <time>2016-05-28T13:28:17Z</time>
      </trkpt>
      <trkpt lat="48.74388" lon="2.28616">
        <ele>34.66</ele>
        <time>2016-05-28T13:28:19Z</time>
      </trkpt>
      <trkpt lat="48.74378" lon="2.28591">
        <ele>34.55</ele>
        <time>2016-05-28T13:28:37Z</time>
      </trkpt>
      <trkpt lat="48.7437" lon="2.28575">
        <ele>34.58</ele>
        <time>2016-05-28T13:28:52Z</time>
      </trkpt>
      <trkpt lat="48.74365" lon="2.28559">
        <ele>35</ele>
        <time>2016-05-28T13:29:03Z</time>
      </trkpt>
      <trkpt lat="48.74361" lon="2.28545">
        <ele>34.85</ele>
        <time>2016-05-28T13:29:33Z</time>
      </trkpt>
      <trkpt lat="48.74359" lon="2.28525">
        <ele>36</ele>
        <time>2016-05-28T13:29:53Z</time>
      </trkpt>
      <trkpt lat="48.74351" lon="2.28506">
        <ele>37.13</ele>
        <time>2016-05-28T13:30:16Z</time>
      </trkpt>
      <trkpt lat="48.74339" lon="2.2849">
        <ele>38.17</ele>
        <time>2016-05-28T13:30:36Z</time>
      </trkpt>
      <trkpt lat="48.74332" lon="2.2847">
        <ele>38.66</ele>
        <time>2016-05-28T13:30:53Z</time>
      </trkpt>
      <trkpt lat="48.74326" lon="2.28456">
        <ele>38.44</ele>
        <time>2016-05-28T13:31:02Z</time>
      </trkpt>
      <trkpt lat="48.74312" lon="2.28464">
        <ele>37.56</ele>
        <time>2016-05-28T13:31:17Z</time>
      </trkpt>
      <trkpt lat="48.74311" lon="2.28464">
        <ele>37.53</ele>
        <time>2016-05-28T13:31:18Z</time>
      </trkpt>
      <trkpt lat="48.74298" lon="2.28473">
        <ele>36.75</ele>
        <time>2016-05-28T13:31:35Z</time>
      </trkpt>
      <trkpt lat="48.74301" lon="2.28463">
        <ele>36.5</ele>
        <time>2016-05-28T13:31:46Z</time>
      </trkpt>
      <trkpt lat="48.74308" lon="2.28451">
        <ele>35.77</ele>
        <time>2016-05-28T13:31:57Z</time>
      </trkpt>
      <trkpt lat="48.74307" lon="2.28447">
        <ele>35.68</ele>
        <time>2016-05-28T13:32:01Z</time>
      </trkpt>
      <trkpt lat="48.74295" lon="2.28438">
        <ele>35.12</ele>
        <time>2016-05-28T13:32:18Z</time>
      </trkpt>
      <trkpt lat="48.74287" lon="2.28412">
        <ele>34.29</ele>
        <time>2016-05-28T13:32:37Z</time>
      </trkpt>
      <trkpt lat="48.7429" lon="2.28388">
        <ele>34.42</ele>
        <time>2016-05-28T13:32:52Z</time>
      </trkpt>
      <trkpt lat="48.74288" lon="2.28358">
        <ele>34.87</ele>
        <time>2016-05-28T13:33:08Z</time>
      </trkpt>
      <trkpt lat="48.74288" lon="2.28354">
        <ele>35.09</ele>
        <time>2016-05-28T13:33:12Z</time>
      </trkpt>
      <trkpt lat="48.74285" lon="2.2834">
        <ele>35.19</ele>
        <time>2016-05-28T13:33:21Z</time>
      </trkpt>
      <trkpt lat="48.74281" lon="2.28315">
        <ele>35.22</ele>
        <time>2016-05-28T13:33:38Z</time>
      </trkpt>
      <trkpt lat="48.74278" lon="2.28306">
        <ele>35.42</ele>
        <time>2016-05-28T13:33:44Z</time>
      </trkpt>
      <trkpt lat="48.74269" lon="2.28276">
        <ele>35.55</ele>
        <time>2016-05-28T13:34:03Z</time>
      </trkpt>
      <trkpt lat="48.74258" lon="2.28252">
        <ele>35.4</ele>
        <time>2016-05-28T13:34:21Z</time>
      </trkpt>
      <trkpt lat="48.74251" lon="2.28243">
        <ele>35.43</ele>
        <time>2016-05-28T13:34:29Z</time>
      </trkpt>
      <trkpt lat="48.74249" lon="2.28233">
        <ele>35.42</ele>
        <time>2016-05-28T13:34:36Z</time>
      </trkpt>
      <trkpt lat="48.74247" lon="2.28208">
        <ele>35.53</ele>
        <time>2016-05-28T13:34:51Z</time>
      </trkpt>
      <trkpt lat="48.74232" lon="2.28197">
        <ele>35.75</ele>
        <time>2016-05-28T13:35:11Z</time>
      </trkpt>
      <trkpt lat="48.74229" lon="2.28197">
        <ele>35.96</ele>
        <time>2016-05-28T13:35:39Z</time>
      </trkpt>
      <trkpt lat="48.74227" lon="2.28197">
        <ele>36.02</ele>
        <time>2016-05-28T13:35:43Z</time>
      </trkpt>
      <trkpt lat="48.7426" lon="2.28149">
        <ele>40.14</ele>
        <time>2016-05-28T13:41:13Z</time>
      </trkpt>
      <trkpt lat="48.74264" lon="2.28145">
        <ele>40.23</ele>
        <time>2016-05-28T13:41:16Z</time>
      </trkpt>
      <trkpt lat="48.74277" lon="2.28135">
        <ele>40.25</ele>
        <time>2016-05-28T13:41:29Z</time>
      </trkpt>
      <trkpt lat="48.74286" lon="2.28136">
        <ele>39.59</ele>
        <time>2016-05-28T13:41:49Z</time>
      </trkpt>
      <trkpt lat="48.7429" lon="2.28134">
        <ele>37.94</ele>
        <time>2016-05-28T13:42:07Z</time>
      </trkpt>
      <trkpt lat="48.74285" lon="2.28119">
        <ele>37.76</ele>
        <time>2016-05-28T13:42:22Z</time>
      </trkpt>
      <trkpt lat="48.74278" lon="2.28096">
        <ele>37.78</ele>
        <time>2016-05-28T13:42:38Z</time>
      </trkpt>
      <trkpt lat="48.74268" lon="2.28079">
        <ele>37.68</ele>
        <time>2016-05-28T13:42:54Z</time>
      </trkpt>
      <trkpt lat="48.74257" lon="2.28061">
        <ele>37.24</ele>
        <time>2016-05-28T13:43:15Z</time>
      </trkpt>
      <trkpt lat="48.74243" lon="2.28031">
        <ele>37.32</ele>
        <time>2016-05-28T13:43:40Z</time>
      </trkpt>
      <trkpt lat="48.74233" lon="2.28013">
        <ele>37.36</ele>
        <time>2016-05-28T13:43:58Z</time>
      </trkpt>
      <trkpt lat="48.74233" lon="2.28012">
        <ele>37.33</ele>
        <time>2016-05-28T13:43:59Z</time>
      </trkpt>
      <trkpt lat="48.7423" lon="2.28009">
        <ele>37.29</ele>
        <time>2016-05-28T13:44:02Z</time>
      </trkpt>
      <trkpt lat="48.74222" lon="2.27991">
        <ele>37.3</ele>
        <time>2016-05-28T13:44:17Z</time>
      </trkpt>
      <trkpt lat="48.74213" lon="2.27975">
        <ele>37.24</ele>
        <time>2016-05-28T13:44:34Z</time>
      </trkpt>
      <trkpt lat="48.74204" lon="2.27952">
        <ele>37.08</ele>
        <time>2016-05-28T13:44:54Z</time>
      </trkpt>
      <trkpt lat="48.7419" lon="2.27926">
        <ele>36.57</ele>
        <time>2016-05-28T13:45:17Z</time>
      </trkpt>
      <trkpt lat="48.74179" lon="2.2789">
        <ele>36.38</ele>
        <time>2016-05-28T13:45:38Z</time>
      </trkpt>
      <trkpt lat="48.74172" lon="2.27872">
        <ele>36.11</ele>
        <time>2016-05-28T13:45:48Z</time>
      </trkpt>
      <trkpt lat="48.74167" lon="2.27859">
        <ele>36.29</ele>
        <time>2016-05-28T13:45:52Z</time>
      </trkpt>
      <trkpt lat="48.74157" lon="2.2783">
        <ele>36.1</ele>
        <time>2016-05-28T13:46:05Z</time>
      </trkpt>
      <trkpt lat="48.74149" lon="2.27808">
        <ele>36.16</ele>
        <time>2016-05-28T13:46:21Z</time>
      </trkpt>
      <trkpt lat="48.74135" lon="2.27782">
        <ele>35.93</ele>
        <time>2016-05-28T13:46:45Z</time>
      </trkpt>
      <trkpt lat="48.74125" lon="2.27771">
        <ele>35.69</ele>
        <time>2016-05-28T13:46:59Z</time>
      </trkpt>
      <trkpt lat="48.74119" lon="2.27764">
        <ele>35.68</ele>
        <time>2016-05-28T13:47:03Z</time>
      </trkpt>
      <trkpt lat="48.74102" lon="2.27751">
        <ele>35.8</ele>
        <time>2016-05-28T13:47:25Z</time>
      </trkpt>
      <trkpt lat="48.74087" lon="2.27723">
        <ele>36.68</ele>
        <time>2016-05-28T13:47:49Z</time>
      </trkpt>
      <trkpt lat="48.74073" lon="2.27696">
        <ele>36.99</ele>
        <time>2016-05-28T13:48:09Z</time>
      </trkpt>
      <trkpt lat="48.74059" lon="2.27684">
        <ele>37.09</ele>
        <time>2016-05-28T13:48:29Z</time>
      </trkpt>
      <trkpt lat="48.74043" lon="2.27662">
        <ele>37.28</ele>
        <time>2016-05-28T13:48:50Z</time>
      </trkpt>
      <trkpt lat="48.74035" lon="2.27647">
        <ele>37.25</ele>
        <time>2016-05-28T13:48:57Z</time>
      </trkpt>
      <trkpt lat="48.74021" lon="2.27621">
        <ele>37.6</ele>
        <time>2016-05-28T13:49:11Z</time>
      </trkpt>
      <trkpt lat="48.74012" lon="2.2761">
        <ele>37.5</ele>
        <time>2016-05-28T13:49:29Z</time>
      </trkpt>
      <trkpt lat="48.7401" lon="2.27607">
        <ele>37.37</ele>
        <time>2016-05-28T13:49:32Z</time>
      </trkpt>
      <trkpt lat="48.74005" lon="2.27603">
        <ele>37.34</ele>
        <time>2016-05-28T13:49:39Z</time>
      </trkpt>
      <trkpt lat="48.7399" lon="2.27583">
        <ele>37.36</ele>
        <time>2016-05-28T13:49:56Z</time>
      </trkpt>
      <trkpt lat="48.7399" lon="2.27582">
        <ele>37.34</ele>
        <time>2016-05-28T13:49:57Z</time>
      </trkpt>
      <trkpt lat="48.73977" lon="2.27573">
        <ele>36.6</ele>
        <time>2016-05-28T13:50:13Z</time>
      </trkpt>
      <trkpt lat="48.73962" lon="2.27548">
        <ele>35.5</ele>
        <time>2016-05-28T13:50:33Z</time>
      </trkpt>
      <trkpt lat="48.73961" lon="2.27544">
        <ele>35.34</ele>
        <time>2016-05-28T13:50:36Z</time>
      </trkpt>
      <trkpt lat="48.7396" lon="2.27535">
        <ele>35.39</ele>
        <time>2016-05-28T13:50:47Z</time>
      </trkpt>
      <trkpt lat="48.7395" lon="2.2752">
        <ele>35.38</ele>
        <time>2016-05-28T13:51:08Z</time>
      </trkpt>
      <trkpt lat="48.7393" lon="2.27512">
        <ele>35.5</ele>
        <time>2016-05-28T13:51:29Z</time>
      </trkpt>
      <trkpt lat="48.73913" lon="2.27507">
        <ele>35.44</ele>
        <time>2016-05-28T13:51:48Z</time>
      </trkpt>
      <trkpt lat="48.73903" lon="2.27504">
        <ele>35.53</ele>
        <time>2016-05-28T13:52:00Z</time>
      </trkpt>
      <trkpt lat="48.73899" lon="2.27506">
        <ele>35.54</ele>
        <time>2016-05-28T13:52:02Z</time>
      </trkpt>
      <trkpt lat="48.73871" lon="2.27517">
        <ele>35.71</ele>
        <time>2016-05-28T13:52:23Z</time>
      </trkpt>
      <trkpt lat="48.73862" lon="2.27521">
        <ele>36.01</ele>
        <time>2016-05-28T13:52:34Z</time>
      </trkpt>
      <trkpt lat="48.73856" lon="2.27507">
        <ele>36.64</ele>
        <time>2016-05-28T13:52:49Z</time>
      </trkpt>
      <trkpt lat="48.73848" lon="2.27483">
        <ele>36.76</ele>
        <time>2016-05-28T13:53:02Z</time>
      </trkpt>
      <trkpt lat="48.73847" lon="2.27481">
        <ele>36.71</ele>
        <time>2016-05-28T13:53:03Z</time>
      </trkpt>
      <trkpt lat="48.73846" lon="2.27466">
        <ele>36.82</ele>
        <time>2016-05-28T13:53:10Z</time>
      </trkpt>
      <trkpt lat="48.73842" lon="2.27447">
        <ele>37.2</ele>
        <time>2016-05-28T13:53:27Z</time>
      </trkpt>
      <trkpt lat="48.73841" lon="2.27432">
        <ele>37.17</ele>
        <time>2016-05-28T13:53:39Z</time>
      </trkpt>
      <trkpt lat="48.73839" lon="2.27407">
        <ele>37.36</ele>
        <time>2016-05-28T13:54:02Z</time>
      </trkpt>
      <trkpt lat="48.73843" lon="2.27366">
        <ele>37.14</ele>
        <time>2016-05-28T13:54:23Z</time>
      </trkpt>
      <trkpt lat="48.73852" lon="2.2736">
        <ele>37.64</ele>
        <time>2016-05-28T13:54:43Z</time>
      </trkpt>
      <trkpt lat="48.73851" lon="2.27354">
        <ele>37.76</ele>
        <time>2016-05-28T13:54:56Z</time>
      </trkpt>
      <trkpt lat="48.73849" lon="2.27357">
        <ele>37.57</ele>
        <time>2016-05-28T13:55:01Z</time>
      </trkpt>
      <trkpt lat="48.73849" lon="2.27351">
        <ele>37.65</ele>
        <time>2016-05-28T13:55:31Z</time>
      </trkpt>
      <trkpt lat="48.7385" lon="2.27351">
        <ele>37.65</ele>
        <time>2016-05-28T13:55:33Z</time>
      </trkpt>
      <trkpt lat="48.73916" lon="2.2737">
        <ele>37.49</ele>
        <time>2016-05-28T13:58:31Z</time>
      </trkpt>
      <trkpt lat="48.73927" lon="2.27382">
        <ele>37.23</ele>
        <time>2016-05-28T13:58:44Z</time>
      </trkpt>
      <trkpt lat="48.73942" lon="2.27396">
        <ele>36.83</ele>
        <time>2016-05-28T13:59:05Z</time>
      </trkpt>
      <trkpt lat="48.73961" lon="2.27409">
        <ele>36.24</ele>
        <time>2016-05-28T13:59:26Z</time>
      </trkpt>
      <trkpt lat="48.7398" lon="2.27422">
        <ele>35.86</ele>
        <time>2016-05-28T13:59:48Z</time>
      </trkpt>
      <trkpt lat="48.74001" lon="2.27439">
        <ele>35.66</ele>
        <time>2016-05-28T14:00:07Z</time>
      </trkpt>
      <trkpt lat="48.7401" lon="2.27446">
        <ele>35.77</ele>
        <time>2016-05-28T14:00:15Z</time>
      </trkpt>
      <trkpt lat="48.74021" lon="2.27467">
        <ele>35.58</ele>
        <time>2016-05-28T14:00:30Z</time>
      </trkpt>
      <trkpt lat="48.74021" lon="2.27472">
        <ele>35.62</ele>
        <time>2016-05-28T14:00:33Z</time>
      </trkpt>
      <trkpt lat="48.74021" lon="2.27478">
        <ele>35.64</ele>
        <time>2016-05-28T14:00:37Z</time>
      </trkpt>
      <trkpt lat="48.74018" lon="2.27486">
        <ele>35.48</ele>
        <time>2016-05-28T14:00:42Z</time>
      </trkpt>
      <trkpt lat="48.74012" lon="2.27494">
        <ele>35.3</ele>
        <time>2016-05-28T14:00:48Z</time>
      </trkpt>
      <trkpt lat="48.73994" lon="2.27507">
        <ele>34.58</ele>
        <time>2016-05-28T14:01:05Z</time>
      </trkpt>
      <trkpt lat="48.73994" lon="2.27514">
        <ele>34.53</ele>
        <time>2016-05-28T14:01:09Z</time>
      </trkpt>
      <trkpt lat="48.74" lon="2.27519">
        <ele>34.49</ele>
        <time>2016-05-28T14:01:13Z</time>
      </trkpt>
      <trkpt lat="48.74008" lon="2.27529">
        <ele>34.45</ele>
        <time>2016-05-28T14:01:20Z</time>
      </trkpt>
      <trkpt lat="48.74012" lon="2.27539">
        <ele>34.33</ele>
        <time>2016-05-28T14:01:24Z</time>
      </trkpt>
      <trkpt lat="48.74026" lon="2.27559">
        <ele>34.34</ele>
        <time>2016-05-28T14:01:37Z</time>
      </trkpt>
      <trkpt lat="48.74027" lon="2.27559">
        <ele>34.33</ele>
        <time>2016-05-28T14:01:38Z</time>
      </trkpt>
      <trkpt lat="48.74039" lon="2.27568">
        <ele>34.17</ele>
        <time>2016-05-28T14:01:48Z</time>
      </trkpt>
      <trkpt lat="48.74054" lon="2.27579">
        <ele>33.9</ele>
        <time>2016-05-28T14:02:01Z</time>
      </trkpt>
      <trkpt lat="48.74071" lon="2.27593">
        <ele>33.58</ele>
        <time>2016-05-28T14:02:16Z</time>
      </trkpt>
      <trkpt lat="48.74084" lon="2.27601">
        <ele>33.28</ele>
        <time>2016-05-28T14:02:28Z</time>
      </trkpt>
      <trkpt lat="48.74099" lon="2.27612">
        <ele>32.87</ele>
        <time>2016-05-28T14:02:41Z</time>
      </trkpt>
      <trkpt lat="48.74116" lon="2.27623">
        <ele>32.66</ele>
        <time>2016-05-28T14:02:57Z</time>
      </trkpt>
      <trkpt lat="48.74131" lon="2.27633">
        <ele>32.51</ele>
        <time>2016-05-28T14:03:12Z</time>
      </trkpt>
      <trkpt lat="48.74146" lon="2.27644">
        <ele>32.34</ele>
        <time>2016-05-28T14:03:24Z</time>
      </trkpt>
      <trkpt lat="48.74159" lon="2.27653">
        <ele>32.21</ele>
        <time>2016-05-28T14:03:36Z</time>
      </trkpt>
      <trkpt lat="48.74163" lon="2.27654">
        <ele>32.26</ele>
        <time>2016-05-28T14:03:39Z</time>
      </trkpt>
      <trkpt lat="48.74165" lon="2.27657">
        <ele>32.27</ele>
        <time>2016-05-28T14:03:41Z</time>
      </trkpt>
      <trkpt lat="48.74171" lon="2.27665">
        <ele>32.2</ele>
        <time>2016-05-28T14:03:47Z</time>
      </trkpt>
      <trkpt lat="48.74173" lon="2.27667">
        <ele>32.2</ele>
        <time>2016-05-28T14:03:49Z</time>
      </trkpt>
      <trkpt lat="48.74182" lon="2.27676">
        <ele>32.4</ele>
        <time>2016-05-28T14:03:57Z</time>
      </trkpt>
      <trkpt lat="48.74185" lon="2.27681">
        <ele>32.41</ele>
        <time>2016-05-28T14:04:01Z</time>
      </trkpt>
      <trkpt lat="48.74189" lon="2.27688">
        <ele>32.35</ele>
        <time>2016-05-28T14:04:07Z</time>
      </trkpt>
      <trkpt lat="48.74198" lon="2.27705">
        <ele>32.62</ele>
        <time>2016-05-28T14:04:23Z</time>
      </trkpt>
      <trkpt lat="48.74209" lon="2.27731">
        <ele>32.55</ele>
        <time>2016-05-28T14:04:40Z</time>
      </trkpt>
      <trkpt lat="48.7422" lon="2.27753">
        <ele>32.68</ele>
        <time>2016-05-28T14:04:55Z</time>
      </trkpt>
      <trkpt lat="48.74225" lon="2.27762">
        <ele>32.76</ele>
        <time>2016-05-28T14:05:03Z</time>
      </trkpt>
      <trkpt lat="48.74227" lon="2.2777">
        <ele>32.7</ele>
        <time>2016-05-28T14:05:09Z</time>
      </trkpt>
      <trkpt lat="48.74229" lon="2.27773">
        <ele>32.65</ele>
        <time>2016-05-28T14:05:12Z</time>
      </trkpt>
      <trkpt lat="48.74235" lon="2.27781">
        <ele>32.62</ele>
        <time>2016-05-28T14:05:20Z</time>
      </trkpt>
      <trkpt lat="48.7424" lon="2.27785">
        <ele>32.64</ele>
        <time>2016-05-28T14:05:24Z</time>
      </trkpt>
      <trkpt lat="48.74244" lon="2.27792">
        <ele>32.6</ele>
        <time>2016-05-28T14:05:29Z</time>
      </trkpt>
      <trkpt lat="48.74255" lon="2.27814">
        <ele>32.71</ele>
        <time>2016-05-28T14:05:44Z</time>
      </trkpt>
      <trkpt lat="48.74259" lon="2.27818">
        <ele>32.76</ele>
        <time>2016-05-28T14:05:48Z</time>
      </trkpt>
      <trkpt lat="48.74264" lon="2.27824">
        <ele>32.82</ele>
        <time>2016-05-28T14:05:54Z</time>
      </trkpt>
      <trkpt lat="48.74266" lon="2.27826">
        <ele>32.81</ele>
        <time>2016-05-28T14:05:56Z</time>
      </trkpt>
      <trkpt lat="48.74279" lon="2.27842">
        <ele>32.94</ele>
        <time>2016-05-28T14:06:13Z</time>
      </trkpt>
      <trkpt lat="48.74289" lon="2.27865">
        <ele>33.31</ele>
        <time>2016-05-28T14:06:30Z</time>
      </trkpt>
      <trkpt lat="48.74296" lon="2.27883">
        <ele>33.29</ele>
        <time>2016-05-28T14:06:40Z</time>
      </trkpt>
      <trkpt lat="48.743" lon="2.27888">
        <ele>33.21</ele>
        <time>2016-05-28T14:06:45Z</time>
      </trkpt>
      <trkpt lat="48.74303" lon="2.27891">
        <ele>33.21</ele>
        <time>2016-05-28T14:06:48Z</time>
      </trkpt>
      <trkpt lat="48.74315" lon="2.27909">
        <ele>32.65</ele>
        <time>2016-05-28T14:07:04Z</time>
      </trkpt>
      <trkpt lat="48.74325" lon="2.27918">
        <ele>32.53</ele>
        <time>2016-05-28T14:07:18Z</time>
      </trkpt>
      <trkpt lat="48.74333" lon="2.27924">
        <ele>32.45</ele>
        <time>2016-05-28T14:07:42Z</time>
      </trkpt>
      <trkpt lat="48.74341" lon="2.27932">
        <ele>32.4</ele>
        <time>2016-05-28T14:08:00Z</time>
      </trkpt>
      <trkpt lat="48.74342" lon="2.27926">
        <ele>32.73</ele>
        <time>2016-05-28T14:08:24Z</time>
      </trkpt>
      <trkpt lat="48.74341" lon="2.27925">
        <ele>32.74</ele>
        <time>2016-05-28T14:08:26Z</time>
      </trkpt>
      <trkpt lat="48.74344" lon="2.27912">
        <ele>36.88</ele>
        <time>2016-05-28T14:15:26Z</time>
      </trkpt>
      <trkpt lat="48.74344" lon="2.27912">
        <ele>40.15</ele>
        <time>2016-05-28T14:15:27Z</time>
      </trkpt>
    </trkseg>
  </trk>
</gpx>